This is the latest recevied weather packets stored in our database for station/object LKVO. If no packets are shown the sender has not sent any weather packets the latest 10 day(s).
| Time | Temp. | Humidity | Pressure | Rain* | Wind** | Luminosity | Snow |
|---|---|---|---|---|---|---|---|
| 1778159050 | 15° C | 58% | 1012 hPa | - | - | - | - |
| 1778155383 | 15° C | 58% | 1012 hPa | - | - | - | - |
| 1778151864 | 16.11° C | 59% | 1011 hPa | - | - | - | - |
| 1778148363 | 16.11° C | 63% | 1011 hPa | - | - | - | - |
| 1778144470 | 16.11° C | 63% | 1010 hPa | - | - | - | - |
| 1778140984 | 15° C | 72% | 1010 hPa | - | - | - | - |
| 1778137511 | 13.89° C | 76% | 1010 hPa | - | - | - | - |
| 1778135943 | 13.89° C | 82% | 1009 hPa | - | - | - | - |
| 1778072711 | 20° C | 52% | 1006 hPa | - | - | - | - |
| 1778068930 | 20° C | 52% | 1006 hPa | - | - | - | - |
| 1778065449 | 17.78° C | 59% | 1007 hPa | - | - | - | - |
| 1778061783 | 17.78° C | 59% | 1007 hPa | - | - | - | - |
| 1778058184 | 17.22° C | 67% | 1007 hPa | - | - | - | - |
| 1778054710 | 16.11° C | 72% | 1006 hPa | - | - | - | - |
| 1778050932 | 13.89° C | 87% | 1006 hPa | - | - | - | - |
| 1778049912 | 13.89° C | 82% | 1006 hPa | - | - | - | - |
| 1777989784 | 23.89° C | 36% | 1005 hPa | - | - | - | - |
| 1777986183 | 23.89° C | 38% | 1006 hPa | - | - | - | - |
| 1777982649 | 22.78° C | 40% | 1006 hPa | - | - | - | - |
| 1777978936 | 22.78° C | 40% | 1007 hPa | - | - | - | - |
| 1777975623 | 21.11° C | 46% | 1007 hPa | - | - | - | - |
| 1777971670 | 20° C | 52% | 1008 hPa | - | - | - | - |
| 1777968130 | 18.89° C | 55% | 1008 hPa | - | - | - | - |
| 1777964538 | 17.78° C | 63% | 1008 hPa | - | - | - | - |
| 1777899739 | 22.22° C | 37% | 1013 hPa | - | - | - | - |
* Rain since midnight (hover to see other rain measurements)
** Current wind speed in m/s (hover to see current wind gust speed)